Time;durP1;ratioP1;P1;durP2;ratioP2;P2;SDS_P1;SDS_P2;PMS_P1;PMS_P2;Temp;Humidity;BMP_temperature;BMP_pressure;BME280_temperature;BME280_humidity;BME280_pressure;Samples;Min_cycle;Max_cycle;Signal;HPM_P1;HPM_P2
2022/06/07 00:02:06;;;;;;;13.18;8.40;;;12.00;99.90;;;;;;5092206;28;20140;-73
2022/06/07 00:04:33;;;;;;;13.25;8.77;;;12.00;99.90;;;;;;5092196;28;20089;-72
2022/06/07 00:07:00;;;;;;;14.75;8.27;;;12.00;99.90;;;;;;5091705;28;20052;-73
2022/06/07 00:09:25;;;;;;;15.35;8.52;;;12.00;99.90;;;;;;5069919;28;20040;-73
2022/06/07 00:11:52;;;;;;;14.45;10.05;;;12.00;99.90;;;;;;5081084;28;20125;-72
2022/06/07 00:14:18;;;;;;;16.05;8.48;;;12.00;99.90;;;;;;5092044;28;20065;-73
2022/06/07 00:16:43;;;;;;;14.57;8.52;;;12.00;99.90;;;;;;5091442;28;20044;-74
2022/06/07 00:19:09;;;;;;;16.23;9.70;;;12.00;99.90;;;;;;5073384;28;20105;-73
2022/06/07 00:21:35;;;;;;;14.75;9.82;;;12.00;99.90;;;;;;5091323;28;20044;-75
2022/06/07 00:24:01;;;;;;;14.95;9.85;;;12.00;99.90;;;;;;5076473;28;20088;-75
2022/06/07 00:26:28;;;;;;;14.60;10.63;;;12.10;99.90;;;;;;5090018;28;20085;-74
2022/06/07 00:28:54;;;;;;;14.95;9.68;;;12.10;99.90;;;;;;5091641;28;20052;-76
2022/06/07 00:31:21;;;;;;;16.42;9.88;;;12.10;99.90;;;;;;5091922;28;20077;-73
2022/06/07 00:33:47;;;;;;;13.65;9.20;;;12.10;99.90;;;;;;5091902;28;20044;-74
2022/06/07 00:36:13;;;;;;;16.30;10.65;;;12.10;99.90;;;;;;5091055;28;20519;-74
2022/06/07 00:38:42;;;;;;;16.05;10.43;;;12.10;99.90;;;;;;5073751;28;20135;-74
2022/06/07 00:41:07;;;;;;;15.20;10.23;;;12.20;99.90;;;;;;5053086;28;20098;-74
2022/06/07 00:43:33;;;;;;;16.38;10.70;;;12.20;99.90;;;;;;5075959;28;20492;-74
2022/06/07 00:45:59;;;;;;;13.27;9.23;;;12.20;99.90;;;;;;5071268;28;20044;-73
2022/06/07 00:48:26;;;;;;;14.55;10.18;;;12.20;99.90;;;;;;5076675;28;20067;-72
2022/06/07 00:51:01;;;;;;;14.98;9.25;;;12.20;99.90;;;;;;5091500;28;20051;-73
2022/06/07 00:53:28;;;;;;;15.13;9.30;;;12.30;99.90;;;;;;5076799;28;20044;-75
2022/06/07 00:55:55;;;;;;;13.88;9.55;;;12.30;99.90;;;;;;5079465;28;20063;-74
2022/06/07 00:58:22;;;;;;;11.80;9.27;;;12.40;99.90;;;;;;5074380;28;20131;-72
2022/06/07 01:00:48;;;;;;;12.93;9.90;;;12.40;99.90;;;;;;5070834;28;20186;-71
2022/06/07 01:03:15;;;;;;;13.15;9.90;;;12.40;99.90;;;;;;5071303;28;20131;-74
2022/06/07 01:05:41;;;;;;;14.77;10.43;;;12.40;99.90;;;;;;5077224;28;20039;-74
2022/06/07 01:10:53;;;;;;;14.57;10.50;;;12.40;99.90;;;;;;5082665;28;20097;-74
2022/06/07 01:13:23;;;;;;;14.13;9.85;;;12.40;99.90;;;;;;5074735;28;20048;-73
2022/06/07 01:15:48;;;;;;;13.73;10.55;;;12.40;99.90;;;;;;5077265;28;20048;-74
2022/06/07 01:18:16;;;;;;;15.57;11.02;;;12.30;99.90;;;;;;5074271;28;20142;-73
2022/06/07 01:20:42;;;;;;;15.23;11.20;;;12.30;99.90;;;;;;5091452;28;20056;-72
2022/06/07 01:23:08;;;;;;;13.57;10.25;;;12.40;99.90;;;;;;5091081;28;20038;-72
2022/06/07 01:25:34;;;;;;;14.63;9.57;;;12.40;99.90;;;;;;5091102;28;20044;-74
2022/06/07 01:28:01;;;;;;;13.38;10.48;;;12.40;99.90;;;;;;5091067;28;20056;-73
2022/06/07 01:30:26;;;;;;;13.77;10.82;;;12.40;99.90;;;;;;5091132;28;20044;-74
2022/06/07 01:32:52;;;;;;;14.50;9.38;;;12.40;99.90;;;;;;5056625;28;20044;-73
2022/06/07 01:35:18;;;;;;;13.38;9.60;;;12.40;99.90;;;;;;5074812;28;20048;-72
2022/06/07 01:37:44;;;;;;;13.18;9.57;;;12.40;99.90;;;;;;5072601;28;20052;-74
2022/06/07 01:42:54;;;;;;;12.50;9.45;;;12.40;99.90;;;;;;5090832;28;20482;-74
2022/06/07 01:45:21;;;;;;;12.55;9.20;;;12.40;99.90;;;;;;5090794;28;20135;-72
2022/06/07 01:47:47;;;;;;;10.57;8.50;;;12.40;99.90;;;;;;5090803;28;20048;-73
2022/06/07 01:50:13;;;;;;;10.60;8.07;;;12.40;99.90;;;;;;5093157;28;20048;-73
2022/06/07 01:52:39;;;;;;;11.63;8.60;;;12.40;99.90;;;;;;5079882;28;20078;-74
2022/06/07 01:55:07;;;;;;;11.88;8.85;;;12.40;99.90;;;;;;5092654;28;20055;-72
2022/06/07 01:57:33;;;;;;;13.90;9.00;;;12.40;99.90;;;;;;5091963;28;20504;-72
2022/06/07 02:00:00;;;;;;;10.80;8.27;;;12.40;99.90;;;;;;5075363;28;20080;-73
2022/06/07 02:02:27;;;;;;;12.38;9.07;;;12.40;99.90;;;;;;5064491;28;20056;-74
2022/06/07 02:04:54;;;;;;;11.00;8.75;;;12.50;99.90;;;;;;5077014;28;20128;-71
2022/06/07 02:07:19;;;;;;;10.75;8.77;;;12.50;99.90;;;;;;5094538;28;20392;-71
2022/06/07 02:09:45;;;;;;;12.25;8.45;;;12.40;99.90;;;;;;5080840;28;20131;-73
2022/06/07 02:12:12;;;;;;;12.13;8.23;;;12.40;99.90;;;;;;5056981;28;20056;-72
2022/06/07 02:14:39;;;;;;;12.95;8.38;;;12.40;99.90;;;;;;5094767;28;20127;-76
2022/06/07 02:17:05;;;;;;;12.02;9.43;;;12.40;99.90;;;;;;5080759;28;20044;-73
2022/06/07 02:19:31;;;;;;;13.85;9.80;;;12.40;99.90;;;;;;5094454;28;20456;-73
2022/06/07 02:21:57;;;;;;;12.35;8.20;;;12.40;99.90;;;;;;5094295;28;20104;-72
2022/06/07 02:24:22;;;;;;;12.45;9.00;;;12.40;99.90;;;;;;5094189;28;20093;-72
2022/06/07 02:27:00;;;;;;;15.50;9.27;;;12.40;99.90;;;;;;5094534;28;20055;-73
2022/06/07 02:29:33;;;;;;;12.48;8.35;;;12.40;99.90;;;;;;5094377;28;20115;-72
2022/06/07 02:32:04;;;;;;;14.18;9.60;;;12.40;99.90;;;;;;5094032;28;20500;-72
2022/06/07 02:34:31;;;;;;;15.63;9.15;;;12.40;99.90;;;;;;5094217;28;20076;-74
2022/06/07 02:37:01;;;;;;;15.10;10.15;;;12.40;99.90;;;;;;5093460;28;20051;-74
2022/06/07 02:39:29;;;;;;;13.25;9.52;;;12.40;99.90;;;;;;5093590;28;20530;-73
2022/06/07 02:41:55;;;;;;;13.30;9.40;;;12.40;99.90;;;;;;5093891;28;20071;-72
2022/06/07 02:44:20;;;;;;;13.80;9.18;;;12.40;99.90;;;;;;5072482;28;20485;-74
2022/06/07 02:46:46;;;;;;;13.68;9.38;;;12.40;99.90;;;;;;5080347;28;20051;-73
2022/06/07 02:49:12;;;;;;;13.10;9.20;;;12.40;99.90;;;;;;5093680;28;20561;-73
2022/06/07 02:51:38;;;;;;;12.80;8.82;;;12.40;99.90;;;;;;5093491;28;20048;-73
2022/06/07 02:54:04;;;;;;;15.30;9.40;;;12.40;99.90;;;;;;5093604;28;20048;-72
2022/06/07 02:56:30;;;;;;;13.70;9.20;;;12.40;99.90;;;;;;5093888;28;20082;-74
2022/06/07 02:58:55;;;;;;;13.95;9.13;;;12.40;99.90;;;;;;5075837;28;20083;-72
2022/06/07 03:01:21;;;;;;;15.35;10.45;;;12.50;99.90;;;;;;5093419;28;20043;-74
2022/06/07 03:03:47;;;;;;;16.27;9.40;;;12.50;99.90;;;;;;5075740;28;20043;-72
2022/06/07 03:06:13;;;;;;;14.07;10.30;;;12.50;99.90;;;;;;5093653;28;20071;-73
2022/06/07 03:08:38;;;;;;;15.77;9.02;;;12.50;99.90;;;;;;5093538;28;20093;-75
2022/06/07 03:11:04;;;;;;;15.70;11.10;;;12.50;99.90;;;;;;5093178;28;20059;-74
2022/06/07 03:13:30;;;;;;;15.68;10.98;;;12.50;99.90;;;;;;5093016;28;20047;-73
2022/06/07 03:15:56;;;;;;;14.23;9.43;;;12.40;99.90;;;;;;5075306;28;20483;-73
2022/06/07 03:18:22;;;;;;;15.38;10.32;;;12.50;99.90;;;;;;5093607;28;20044;-73
2022/06/07 03:20:50;;;;;;;15.10;10.52;;;12.50;99.90;;;;;;5093409;28;20054;-73
2022/06/07 03:23:16;;;;;;;15.32;10.07;;;12.50;99.90;;;;;;5074421;28;20147;-74
2022/06/07 03:25:41;;;;;;;15.32;10.40;;;12.50;99.90;;;;;;5093803;28;20127;-73
2022/06/07 03:28:07;;;;;;;14.50;10.80;;;12.50;99.90;;;;;;5094228;28;20451;-72
2022/06/07 03:30:34;;;;;;;13.65;9.80;;;12.50;99.90;;;;;;5093407;28;20044;-74
2022/06/07 03:33:00;;;;;;;17.33;10.68;;;12.50;99.90;;;;;;5073362;28;20252;-73
2022/06/07 03:35:26;;;;;;;14.43;10.35;;;12.50;99.90;;;;;;5065063;28;20391;-74
2022/06/07 03:37:52;;;;;;;13.90;10.25;;;12.50;99.90;;;;;;5079809;28;20039;-74
2022/06/07 03:40:42;;;;;;;14.43;9.38;;;12.50;99.90;;;;;;5072171;28;20036;-74
2022/06/07 03:43:04;;;;;;;16.40;10.33;;;12.50;99.90;;;;;;5091261;28;20051;-73
2022/06/07 03:45:31;;;;;;;14.70;10.48;;;12.50;99.90;;;;;;5092851;28;20126;-74
2022/06/07 03:47:57;;;;;;;15.18;10.85;;;12.50;99.90;;;;;;5093191;28;20048;-75
2022/06/07 03:50:22;;;;;;;13.38;10.20;;;12.50;99.90;;;;;;5092635;28;20044;-73
2022/06/07 03:52:48;;;;;;;14.48;10.25;;;12.50;99.90;;;;;;5092231;28;20113;-74
2022/06/07 03:55:14;;;;;;;13.73;9.93;;;12.50;99.90;;;;;;5092700;28;20791;-73
2022/06/07 03:57:40;;;;;;;15.43;10.00;;;12.50;99.90;;;;;;5092541;28;20043;-75
2022/06/07 04:00:06;;;;;;;13.57;11.18;;;12.60;99.90;;;;;;5071318;28;20084;-71
2022/06/07 04:02:33;;;;;;;17.15;10.25;;;12.50;99.90;;;;;;5069753;28;20041;-76
2022/06/07 04:04:58;;;;;;;15.27;9.82;;;12.60;99.90;;;;;;5092016;28;20047;-72
2022/06/07 04:10:09;;;;;;;13.43;9.60;;;12.50;99.90;;;;;;5091899;28;20422;-72
2022/06/07 04:12:35;;;;;;;16.27;10.70;;;12.60;99.90;;;;;;5057037;28;20265;-74
2022/06/07 04:15:00;;;;;;;14.80;10.55;;;12.60;99.90;;;;;;5092431;28;20055;-74
2022/06/07 04:17:26;;;;;;;13.98;9.85;;;12.70;99.90;;;;;;5074222;28;20101;-73
2022/06/07 04:19:52;;;;;;;13.95;9.50;;;12.60;99.90;;;;;;5091326;28;20098;-73
2022/06/07 04:22:18;;;;;;;13.13;9.25;;;12.60;99.90;;;;;;5092350;28;20805;-73
2022/06/07 04:24:44;;;;;;;12.30;9.07;;;12.60;99.90;;;;;;5091999;28;20051;-73
2022/06/07 04:27:10;;;;;;;13.65;10.48;;;12.70;99.90;;;;;;5092205;28;20047;-72
2022/06/07 04:29:35;;;;;;;13.70;9.15;;;12.70;99.90;;;;;;5091915;28;20048;-73
2022/06/07 04:32:01;;;;;;;12.65;9.65;;;12.70;99.90;;;;;;5092044;28;20403;-72
2022/06/07 04:34:28;;;;;;;13.18;9.05;;;12.70;99.90;;;;;;5070460;28;20064;-72
2022/06/07 04:36:54;;;;;;;13.45;8.93;;;12.70;99.90;;;;;;5089992;28;20054;-75
2022/06/07 04:39:20;;;;;;;14.48;9.73;;;12.70;99.90;;;;;;5091435;28;20055;-73
2022/06/07 04:41:45;;;;;;;14.27;10.13;;;12.70;99.90;;;;;;5047652;28;20056;-72
2022/06/07 04:44:11;;;;;;;14.77;9.45;;;12.70;99.90;;;;;;5085415;28;20040;-72
2022/06/07 04:46:37;;;;;;;12.73;8.48;;;12.70;99.90;;;;;;5064375;28;20051;-74
2022/06/07 04:49:02;;;;;;;14.70;9.95;;;12.70;99.90;;;;;;5090977;28;20047;-73
2022/06/07 04:51:32;;;;;;;14.57;9.82;;;12.70;99.90;;;;;;5090966;28;20047;-72
2022/06/07 04:54:00;;;;;;;14.45;9.13;;;12.70;99.90;;;;;;5083929;28;20048;-73
2022/06/07 04:56:31;;;;;;;14.35;9.68;;;12.70;99.90;;;;;;5076310;28;20063;-74
2022/06/07 04:58:58;;;;;;;12.45;8.52;;;12.80;99.90;;;;;;5071648;28;20181;-73
2022/06/07 05:01:25;;;;;;;13.38;9.75;;;12.80;99.90;;;;;;5064612;28;20484;-72
2022/06/07 05:03:52;;;;;;;14.98;9.40;;;12.80;99.90;;;;;;5053667;28;20044;-73
2022/06/07 05:06:37;;;;;;;12.40;9.52;;;12.80;99.90;;;;;;5073749;28;20044;-76
2022/06/07 05:09:17;;;;;;;14.23;9.48;;;12.80;99.90;;;;;;5071080;28;20044;-72
2022/06/07 05:11:50;;;;;;;13.30;8.98;;;12.80;99.90;;;;;;5071386;28;20036;-72
2022/06/07 05:14:15;;;;;;;14.50;9.05;;;12.80;99.90;;;;;;5084764;28;20044;-73
2022/06/07 05:16:41;;;;;;;14.73;9.73;;;12.80;99.90;;;;;;5091350;28;20128;-74
2022/06/07 05:19:10;;;;;;;15.40;9.68;;;12.80;99.90;;;;;;5088585;28;20040;-72
2022/06/07 05:21:36;;;;;;;15.00;10.43;;;12.80;99.90;;;;;;5071073;28;20550;-72
2022/06/07 05:24:02;;;;;;;13.00;8.32;;;12.80;99.90;;;;;;5083897;28;20048;-73
2022/06/07 05:26:37;;;;;;;14.77;10.20;;;12.90;99.90;;;;;;5090975;28;20048;-74
2022/06/07 05:29:05;;;;;;;12.88;8.70;;;12.90;99.90;;;;;;5073619;28;20035;-73
2022/06/07 05:31:31;;;;;;;12.85;9.73;;;12.90;99.90;;;;;;5091013;28;20051;-72
2022/06/07 05:33:57;;;;;;;12.95;9.20;;;12.90;99.90;;;;;;5091045;28;20097;-73
2022/06/07 05:36:23;;;;;;;15.07;9.88;;;12.90;99.90;;;;;;5090754;28;20083;-75
2022/06/07 05:38:49;;;;;;;14.90;10.02;;;13.00;99.90;;;;;;5078319;28;20060;-77
2022/06/07 05:41:22;;;;;;;14.38;9.15;;;12.90;99.90;;;;;;5076432;28;20044;-73
2022/06/07 05:43:47;;;;;;;13.70;9.35;;;13.00;99.90;;;;;;5090830;28;20052;-73
2022/06/07 05:46:13;;;;;;;14.38;9.85;;;13.00;99.90;;;;;;5091062;28;20079;-73
2022/06/07 05:48:39;;;;;;;17.70;9.55;;;13.00;99.90;;;;;;5069678;28;20059;-72
2022/06/07 05:51:05;;;;;;;14.43;9.27;;;13.00;99.90;;;;;;5079278;28;20055;-72
2022/06/07 05:53:31;;;;;;;13.63;9.48;;;13.00;99.90;;;;;;5090788;28;20059;-74
2022/06/07 05:55:56;;;;;;;12.90;8.80;;;13.00;99.90;;;;;;5090313;28;20052;-76
2022/06/07 05:58:23;;;;;;;16.02;8.93;;;13.00;99.90;;;;;;5091100;28;20396;-76
2022/06/07 06:00:49;;;;;;;13.50;9.27;;;13.00;99.90;;;;;;5069361;28;20673;-72
2022/06/07 06:03:15;;;;;;;12.82;7.95;;;13.00;99.90;;;;;;5075494;28;20074;-72
2022/06/07 06:05:45;;;;;;;12.50;9.07;;;13.00;99.90;;;;;;5090838;28;20449;-74
2022/06/07 06:11:07;;;;;;;14.35;11.00;;;13.00;99.90;;;;;;5072573;28;20060;-72
2022/06/07 06:13:33;;;;;;;12.27;9.23;;;13.00;99.90;;;;;;5090695;28;20476;-72
2022/06/07 06:16:04;;;;;;;12.77;9.15;;;13.00;99.90;;;;;;5090941;28;20127;-71
2022/06/07 06:18:31;;;;;;;12.77;8.90;;;13.00;99.90;;;;;;5090480;28;20119;-71
2022/06/07 06:20:56;;;;;;;15.02;9.50;;;13.00;99.90;;;;;;5090363;28;20052;-70
2022/06/07 06:23:22;;;;;;;15.27;9.10;;;13.00;99.90;;;;;;5090774;28;20565;-71
2022/06/07 06:25:48;;;;;;;16.55;9.75;;;13.00;99.90;;;;;;5090550;28;20052;-69
2022/06/07 06:28:13;;;;;;;13.63;9.07;;;13.10;99.90;;;;;;5073127;28;20379;-72
2022/06/07 06:30:43;;;;;;;13.85;9.23;;;13.10;99.90;;;;;;5090365;28;20800;-70
2022/06/07 06:33:08;;;;;;;13.52;9.27;;;13.10;99.90;;;;;;5090703;28;20110;-70
2022/06/07 06:35:34;;;;;;;11.35;7.90;;;13.10;99.90;;;;;;5092414;28;20513;-71
2022/06/07 06:37:59;;;;;;;13.82;8.90;;;13.10;99.90;;;;;;5093335;28;21786;-70
2022/06/07 06:40:25;;;;;;;11.73;8.43;;;13.10;99.90;;;;;;5084187;28;20126;-70
2022/06/07 06:42:52;;;;;;;13.30;8.45;;;13.10;99.90;;;;;;5093089;28;20055;-71
2022/06/07 06:45:17;;;;;;;13.45;8.15;;;13.10;99.90;;;;;;5094248;28;20047;-70
2022/06/07 06:47:44;;;;;;;12.60;8.23;;;13.10;99.90;;;;;;5092891;28;20040;-71
2022/06/07 06:50:11;;;;;;;12.75;8.40;;;13.10;99.90;;;;;;5081099;28;20434;-70
2022/06/07 06:52:36;;;;;;;12.77;8.70;;;13.10;99.90;;;;;;5088422;28;20116;-70
2022/06/07 06:55:03;;;;;;;12.25;7.75;;;13.10;99.90;;;;;;5093535;28;20447;-71
2022/06/07 06:57:28;;;;;;;11.82;8.05;;;13.10;99.90;;;;;;5093820;28;20040;-72
2022/06/07 06:59:54;;;;;;;12.65;8.07;;;13.00;99.90;;;;;;5077644;28;20055;-70
2022/06/07 07:02:20;;;;;;;11.35;7.80;;;13.00;99.90;;;;;;5079663;28;20503;-71
2022/06/07 07:04:45;;;;;;;13.55;8.43;;;13.00;99.90;;;;;;5087455;28;20040;-73
2022/06/07 07:07:11;;;;;;;13.55;8.48;;;13.00;99.90;;;;;;5078163;28;20037;-71
2022/06/07 07:09:37;;;;;;;12.35;8.35;;;13.00;99.90;;;;;;5080790;28;20549;-70
2022/06/07 07:12:03;;;;;;;11.05;7.63;;;12.90;99.90;;;;;;5084783;28;20047;-70
2022/06/07 07:14:29;;;;;;;12.65;8.75;;;12.80;99.90;;;;;;5081867;28;20040;-72
2022/06/07 07:16:56;;;;;;;14.32;8.48;;;12.60;99.90;;;;;;5065284;28;20043;-76
2022/06/07 07:19:22;;;;;;;13.43;8.93;;;12.50;99.90;;;;;;5072743;28;20077;-72
2022/06/07 07:21:50;;;;;;;14.27;8.52;;;12.40;99.90;;;;;;5085555;28;20504;-71
2022/06/07 07:24:23;;;;;;;15.85;9.45;;;12.40;99.90;;;;;;5069727;28;20044;-72
2022/06/07 07:26:49;;;;;;;14.05;8.65;;;12.40;99.90;;;;;;5091582;28;20104;-71
2022/06/07 07:29:17;;;;;;;13.02;8.48;;;12.50;99.90;;;;;;5075551;28;20044;-71
2022/06/07 07:31:43;;;;;;;16.23;8.50;;;12.50;99.90;;;;;;5080473;28;20319;-72
2022/06/07 07:34:11;;;;;;;14.30;9.43;;;12.50;99.90;;;;;;5089648;28;20043;-75
2022/06/07 07:36:42;;;;;;;14.27;9.13;;;12.60;99.90;;;;;;5091673;28;20419;-72
2022/06/07 07:39:08;;;;;;;15.52;9.32;;;12.60;99.90;;;;;;5092047;28;20052;-76
2022/06/07 07:41:36;;;;;;;15.50;9.45;;;12.60;99.90;;;;;;5092237;28;20051;-71
2022/06/07 07:44:05;;;;;;;14.38;9.40;;;12.70;99.90;;;;;;5092204;28;20046;-73
2022/06/07 07:46:34;;;;;;;13.18;8.68;;;12.70;99.90;;;;;;5091247;28;20048;-73
2022/06/07 07:49:00;;;;;;;14.68;8.65;;;12.70;99.90;;;;;;5077374;28;20402;-72
2022/06/07 07:51:29;;;;;;;15.43;9.57;;;12.70;99.90;;;;;;5079029;28;20052;-73
2022/06/07 07:53:57;;;;;;;13.10;9.15;;;12.70;99.90;;;;;;5094237;28;20048;-72
2022/06/07 07:56:24;;;;;;;13.35;8.93;;;12.80;99.90;;;;;;5061469;28;20091;-72
2022/06/07 07:58:51;;;;;;;14.32;9.57;;;12.70;99.90;;;;;;5086659;28;20470;-71
2022/06/07 08:01:21;;;;;;;16.20;9.57;;;12.70;99.90;;;;;;5091596;28;20044;-72
2022/06/07 08:03:48;;;;;;;14.55;8.68;;;12.70;99.90;;;;;;5073990;28;20117;-71
2022/06/07 08:06:17;;;;;;;13.95;9.25;;;12.80;99.90;;;;;;5073865;28;20059;-75
2022/06/07 08:08:44;;;;;;;12.30;7.72;;;12.80;99.90;;;;;;5091325;28;20562;-74
2022/06/07 08:11:10;;;;;;;14.93;9.45;;;12.80;99.90;;;;;;5091262;28;20056;-75
2022/06/07 08:13:36;;;;;;;13.38;9.60;;;12.80;99.90;;;;;;5074000;28;20458;-70
2022/06/07 08:16:04;;;;;;;12.50;7.82;;;12.70;99.90;;;;;;5092164;28;20044;-72
2022/06/07 08:18:30;;;;;;;13.18;7.82;;;12.70;99.90;;;;;;5057699;28;20047;-71
2022/06/07 08:21:00;;;;;;;14.27;8.63;;;12.60;99.90;;;;;;5091782;28;20127;-72
2022/06/07 08:23:28;;;;;;;11.60;7.15;;;12.60;99.90;;;;;;5074166;28;20139;-74
2022/06/07 08:25:55;;;;;;;13.85;8.13;;;12.60;99.90;;;;;;5073759;28;20060;-72
2022/06/07 08:28:22;;;;;;;12.73;9.02;;;12.60;99.90;;;;;;5091345;28;20555;-73
2022/06/07 08:30:48;;;;;;;12.50;7.50;;;12.60;99.90;;;;;;5092037;28;20040;-73
2022/06/07 08:38:45;;;;;;;12.07;6.85;;;12.80;99.90;;;;;;5091829;28;20056;-74
2022/06/07 08:41:24;;;;;;;9.02;6.50;;;12.90;99.90;;;;;;5091356;28;20074;-72
2022/06/07 08:43:50;;;;;;;12.55;7.07;;;12.90;99.90;;;;;;5073577;28;20396;-73
2022/06/07 08:46:18;;;;;;;11.98;7.05;;;12.90;99.90;;;;;;5091755;28;20091;-73
2022/06/07 08:48:44;;;;;;;11.05;7.38;;;12.80;99.90;;;;;;5091700;28;20097;-74
2022/06/07 08:51:35;;;;;;;10.45;7.18;;;12.80;99.90;;;;;;5091599;28;20048;-71
2022/06/07 08:54:11;;;;;;;11.52;7.55;;;12.70;99.90;;;;;;5091886;28;20059;-72
2022/06/07 08:56:36;;;;;;;12.15;8.18;;;12.70;99.90;;;;;;5073080;28;20137;-74
2022/06/07 08:59:12;;;;;;;13.27;8.55;;;12.70;99.90;;;;;;5073113;28;20094;-73
2022/06/07 09:02:07;;;;;;;16.17;8.55;;;12.60;99.90;;;;;;5073358;28;20129;-73
2022/06/07 09:04:36;;;;;;;10.60;8.05;;;12.60;99.90;;;;;;5091321;28;20048;-72
2022/06/07 09:07:12;;;;;;;9.68;7.28;;;12.60;99.90;;;;;;5091391;28;20052;-72
2022/06/07 09:12:29;;;;;;;11.23;8.60;;;12.60;99.90;;;;;;5090809;28;20105;-72
2022/06/07 09:15:16;;;;;;;10.02;7.35;;;12.60;99.90;;;;;;5091659;28;20123;-71
2022/06/07 09:17:51;;;;;;;11.50;6.93;;;12.70;99.90;;;;;;5091488;28;20463;-72
2022/06/07 09:20:27;;;;;;;11.40;7.07;;;12.70;99.90;;;;;;5070455;28;20052;-72
2022/06/07 09:22:59;;;;;;;15.65;7.80;;;12.70;99.90;;;;;;5071106;28;20086;-74
2022/06/07 09:25:48;;;;;;;9.95;6.63;;;12.80;99.90;;;;;;5086739;28;20051;-71
2022/06/07 09:28:29;;;;;;;13.07;7.40;;;12.90;99.90;;;;;;5090870;28;20054;-72
2022/06/07 09:31:04;;;;;;;13.10;7.38;;;13.00;99.90;;;;;;5090913;28;20059;-73
2022/06/07 09:33:48;;;;;;;14.75;7.47;;;13.00;99.90;;;;;;5090782;28;20173;-72
2022/06/07 09:36:38;;;;;;;14.55;7.05;;;13.10;99.90;;;;;;5091234;28;20052;-72
2022/06/07 09:39:20;;;;;;;10.45;6.55;;;13.20;99.90;;;;;;5076044;28;20048;-71
2022/06/07 09:41:54;;;;;;;11.25;6.47;;;13.20;99.90;;;;;;5072143;28;20488;-73
2022/06/07 09:44:51;;;;;;;12.85;7.53;;;13.20;99.90;;;;;;5072833;28;20493;-72
2022/06/07 09:47:20;;;;;;;;;;;13.20;99.90;;;;;;5091400;28;20054;-72
2022/06/07 09:49:51;;;;;;;13.82;7.10;;;13.20;99.90;;;;;;5072386;28;19928;-71
2022/06/07 09:52:26;;;;;;;11.88;7.47;;;13.20;99.90;;;;;;5090893;28;20064;-73
2022/06/07 09:55:01;;;;;;;10.32;7.05;;;13.30;99.90;;;;;;5090725;28;20051;-72
2022/06/07 09:57:39;;;;;;;10.23;6.53;;;13.30;99.90;;;;;;5072439;28;20131;-71
2022/06/07 10:00:20;;;;;;;9.45;6.82;;;13.40;99.90;;;;;;5072388;28;20462;-74
2022/06/07 10:03:16;;;;;;;8.70;6.25;;;13.40;99.90;;;;;;5090856;28;20087;-73
2022/06/07 10:05:55;;;;;;;11.25;6.57;;;13.40;99.90;;;;;;5090852;28;20052;-73
2022/06/07 10:08:24;;;;;;;9.93;6.90;;;13.50;99.90;;;;;;5055837;28;20048;-72
2022/06/07 10:10:59;;;;;;;9.95;6.53;;;13.50;99.90;;;;;;5086495;28;20044;-72
2022/06/07 10:13:48;;;;;;;9.93;7.47;;;13.60;99.90;;;;;;5081955;28;20500;-71
2022/06/07 10:16:25;;;;;;;12.60;7.53;;;13.60;99.90;;;;;;5083588;28;20519;-72
2022/06/07 10:19:27;;;;;;;10.43;7.13;;;13.60;99.90;;;;;;5093506;28;20048;-73
2022/06/07 10:22:03;;;;;;;11.63;6.80;;;13.70;99.90;;;;;;5071536;28;20072;-71
2022/06/07 10:24:45;;;;;;;11.98;6.55;;;13.70;99.90;;;;;;5074558;28;20045;-72
2022/06/07 10:27:22;;;;;;;8.45;5.78;;;13.70;99.90;;;;;;5072345;28;20504;-73
2022/06/07 10:30:06;;;;;;;8.63;5.47;;;13.60;99.90;;;;;;5072796;28;20396;-73
2022/06/07 10:32:34;;;;;;;9.95;5.30;;;13.60;99.90;;;;;;5090671;28;20139;-72
2022/06/07 10:35:10;;;;;;;8.13;5.35;;;13.60;99.90;;;;;;5075469;28;20067;-73
2022/06/07 10:37:49;;;;;;;8.07;5.40;;;13.60;99.90;;;;;;5093573;28;20544;-76
2022/06/07 10:40:35;;;;;;;10.60;5.03;;;13.60;99.90;;;;;;5093346;28;20055;-74
2022/06/07 10:43:28;;;;;;;7.45;5.13;;;13.70;99.90;;;;;;5073995;28;20052;-71
2022/06/07 10:46:00;;;;;;;9.60;4.90;;;13.70;99.90;;;;;;5073916;28;20049;-73
2022/06/07 10:48:40;;;;;;;11.43;4.95;;;13.70;99.90;;;;;;5062662;28;20052;-73
2022/06/07 10:54:05;;;;;;;8.13;4.47;;;14.00;99.90;;;;;;5093884;28;20052;-74
2022/06/07 10:56:42;;;;;;;7.63;4.35;;;14.20;99.90;;;;;;5093205;28;20052;-72
2022/06/07 10:59:19;;;;;;;6.70;4.38;;;14.20;99.90;;;;;;5093746;28;20452;-74
2022/06/07 11:01:54;;;;;;;6.63;3.92;;;14.30;99.90;;;;;;5093798;28;20091;-73
2022/06/07 11:10:29;;;;;;;6.28;3.60;;;14.20;99.90;;;;;;5085148;28;20073;-73
2022/06/07 11:13:24;;;;;;;7.53;4.10;;;14.20;99.90;;;;;;5086160;28;20181;-72
2022/06/07 11:16:18;;;;;;;8.25;4.18;;;14.20;99.90;;;;;;5089645;28;20091;-72
2022/06/07 11:18:44;;;;;;;7.72;4.55;;;14.10;99.90;;;;;;5081656;28;20044;-72
2022/06/07 11:21:27;;;;;;;7.25;3.97;;;14.10;99.90;;;;;;5094290;28;20089;-72
2022/06/07 11:24:17;;;;;;;8.07;4.40;;;14.10;99.90;;;;;;5089635;28;20083;-71
2022/06/07 11:26:52;;;;;;;6.35;3.58;;;14.00;99.90;;;;;;5080462;28;20048;-72
2022/06/07 11:29:29;;;;;;;5.80;3.90;;;14.00;99.90;;;;;;5075114;28;20083;-73
2022/06/07 11:31:57;;;;;;;9.27;4.15;;;14.00;99.90;;;;;;5079770;28;20051;-75
2022/06/07 11:34:34;;;;;;;9.75;4.50;;;14.00;99.90;;;;;;5054961;28;20475;-75
2022/06/07 11:37:09;;;;;;;8.13;3.78;;;14.00;99.90;;;;;;5054881;28;20044;-75
2022/06/07 11:39:56;;;;;;;8.35;4.25;;;14.00;99.90;;;;;;5054914;28;20040;-75
2022/06/07 11:42:30;;;;;;;7.20;4.00;;;14.00;99.90;;;;;;5069939;28;20777;-73
2022/06/07 11:45:24;;;;;;;6.45;4.13;;;14.10;99.90;;;;;;5074635;28;20139;-74
2022/06/07 11:48:04;;;;;;;6.53;4.32;;;13.90;99.90;;;;;;5084330;28;20568;-79
2022/06/07 11:50:46;;;;;;;6.70;4.05;;;13.90;99.90;;;;;;5074929;28;20044;-74
2022/06/07 11:53:31;;;;;;;8.63;4.57;;;13.80;99.90;;;;;;5073970;28;20060;-78
2022/06/07 11:56:32;;;;;;;6.95;4.07;;;13.80;99.90;;;;;;5074350;28;20058;-75
2022/06/07 11:59:22;;;;;;;10.55;5.22;;;13.80;99.90;;;;;;5092300;28;20086;-78
2022/06/07 12:02:14;;;;;;;11.00;4.90;;;13.80;99.90;;;;;;5092134;28;20512;-74
2022/06/07 12:04:45;;;;;;;6.38;3.95;;;13.80;99.90;;;;;;5080766;28;20154;-70
2022/06/07 12:07:42;;;;;;;10.55;4.45;;;13.80;99.90;;;;;;5092038;28;20052;-72
2022/06/07 12:10:16;;;;;;;6.73;3.57;;;13.80;99.90;;;;;;5092167;28;20044;-76
2022/06/07 12:12:49;;;;;;;6.75;4.07;;;13.80;99.90;;;;;;5091598;28;20134;-75
2022/06/07 12:15:19;;;;;;;9.27;4.65;;;13.90;99.90;;;;;;5091693;28;20320;-76
2022/06/07 12:17:54;;;;;;;10.45;5.00;;;14.10;99.90;;;;;;5072955;28;20032;-72
2022/06/07 12:20:35;;;;;;;6.50;4.03;;;14.20;99.90;;;;;;5091442;28;20044;-71
2022/06/07 12:23:25;;;;;;;9.07;4.65;;;14.30;99.90;;;;;;5091664;28;20052;-70
2022/06/07 12:26:18;;;;;;;10.63;4.43;;;14.30;99.90;;;;;;5072416;28;20048;-72
2022/06/07 12:29:00;;;;;;;8.02;4.63;;;14.30;99.90;;;;;;5071970;28;20501;-71
2022/06/07 12:31:27;;;;;;;8.80;3.72;;;14.40;99.90;;;;;;5071493;28;20067;-72
2022/06/07 12:33:58;;;;;;;9.10;4.28;;;14.40;99.90;;;;;;5070902;28;20045;-71
2022/06/07 12:36:33;;;;;;;8.30;3.83;;;14.50;99.90;;;;;;5071159;28;20045;-73
2022/06/07 12:39:20;;;;;;;8.45;4.28;;;14.60;99.90;;;;;;5070933;28;20139;-73
2022/06/07 12:41:58;;;;;;;8.20;4.18;;;14.70;99.90;;;;;;5081242;28;20093;-73
2022/06/07 12:44:27;;;;;;;8.07;4.05;;;14.70;99.90;;;;;;5091284;28;20044;-72
2022/06/07 12:46:53;;;;;;;6.53;3.88;;;14.80;99.90;;;;;;5091519;28;20052;-72
2022/06/07 12:49:29;;;;;;;7.03;4.47;;;14.90;99.90;;;;;;5091839;28;20153;-73
2022/06/07 12:52:00;;;;;;;9.32;3.95;;;15.00;99.90;;;;;;5072943;28;20055;-72
2022/06/07 12:54:28;;;;;;;7.25;4.10;;;15.10;99.90;;;;;;5091292;28;20051;-73
2022/06/07 12:56:58;;;;;;;5.47;3.63;;;15.20;99.90;;;;;;5073164;28;20555;-72
2022/06/07 12:59:35;;;;;;;7.00;4.10;;;15.20;99.90;;;;;;5091244;28;20051;-71
2022/06/07 13:02:11;;;;;;;7.20;4.30;;;15.30;99.90;;;;;;5090423;28;20051;-73
2022/06/07 13:04:44;;;;;;;8.90;4.30;;;15.30;99.90;;;;;;5091085;28;20111;-75
2022/06/07 13:07:16;;;;;;;7.35;3.92;;;15.30;99.90;;;;;;5089040;28;20876;-74
2022/06/07 13:09:45;;;;;;;5.88;3.60;;;15.30;99.90;;;;;;5073028;28;20051;-75
2022/06/07 13:12:18;;;;;;;8.05;3.97;;;15.30;99.90;;;;;;5056161;28;20056;-75
2022/06/07 13:14:44;;;;;;;7.15;4.35;;;15.50;99.90;;;;;;5090826;28;20448;-74
2022/06/07 13:17:31;;;;;;;7.80;4.18;;;15.50;99.90;;;;;;5073145;28;20055;-74
2022/06/07 13:19:59;;;;;;;5.90;3.50;;;15.50;99.90;;;;;;5069026;28;20052;-74
2022/06/07 13:22:27;;;;;;;6.70;3.63;;;15.60;99.90;;;;;;5075771;28;20369;-75
2022/06/07 13:25:03;;;;;;;6.57;3.25;;;15.60;99.90;;;;;;5090544;28;20113;-72